Egin, Idaho
Current Conditions -  °F | °C
As of 7:35 PM on Saturday 25 Oct 2014 (Local Time) from KWYS Reporting Station
Clear Clear  
Wind Chill: 54°   Ceiling: Unl
Heat Index: 54°   Visibility: 10mi
Dew Point: 28°   Wind: 8mph
Humidity: 38%   Direction: 230°SW
Pressure: 29.93"   Gusts: NA
Location:  44.2887°N, 111.507°W
Report Text: KWYS 260135Z AUTO 23007KT 10SM CLR 12/M02 A2993 RMK AO2
Loading
Personal Weather Stations






























Interactive Weather Map
Tropical Storm Tracking
New forecast layout! Learn more

10-Day Weather Forecast

Advertisements
Track Severe Weather on mobile